Kalamazoo Battle Creek International Airport Kalamazoo US
ICAO: KAZO
IATA: AZO
Category: Medium
Scheduled Services: Yes

Elevation: 874 ft
TransAlt. 18000 ft.

Airport Communications:
APP/DEP:119.2
ATIS:127.25
CLNC DEL:121.75
CTAF:118.3
GND:121.9
LANSING RDO:109
TWR:118.3
UNICOM:122.95

KAZO Zoom In..

Runways:

(A) RW 05 length 3439 ft width 100 ft
---- / hdg 48

(B) RW 09 length 2800 ft width 60 ft
---- / hdg 93

(C) RW 17 length 6502 ft width 150 ft
---- / hdg 174

(D) RW 23 length 3439 ft width 100 ft
---- / hdg 228

(E) RW 27 length 2800 ft width 60 ft
---- / hdg 273

(F) RW 35 length 6502 ft width 150 ft
ILS 110.90 / hdg 354

Location; KAZO
Day. 04 / Time. 14.10 Zulu
* Altimeter: 30.05
* Temperature: 08° c. 46.4°f.
* Wind from: 280° Speed 06 kn.
Dewpoint: 06° c.
Visibility: 4 Statute Miles.
Clouds: Few 900 ft.
Clouds: Few 3800 ft.
Clouds: Overcast 4800 ft.
Conditions: Light Rain.Conditions: Mist.

KAZO 041410Z 28006KT 4SM -RA BR FEW009 FEW038 OVC048 08/06 A3005 RMK AO2 P0001 T00780056


Wind From 280°
Speed 06 kn.

 
 
jpsmedia worldairports.se 2020   terms of use